createdAt,value
2023-05-22T00:01:37.840Z,14.10
2023-05-22T00:04:04.676Z,14.97
2023-05-22T00:06:31.588Z,14.00
2023-05-22T00:08:58.133Z,14.33
2023-05-22T00:11:24.723Z,14.80
2023-05-22T00:13:51.924Z,14.33
2023-05-22T00:16:18.512Z,14.57
2023-05-22T00:18:45.409Z,15.17
2023-05-22T00:21:12.164Z,15.03
2023-05-22T00:23:38.799Z,16.40
2023-05-22T00:26:05.474Z,16.77
2023-05-22T00:28:32.086Z,16.97
2023-05-22T00:30:58.944Z,15.87
2023-05-22T00:33:25.507Z,15.53
2023-05-22T00:35:52.090Z,16.30
2023-05-22T00:38:32.903Z,16.07
2023-05-22T00:41:03.676Z,15.87
2023-05-22T00:43:30.524Z,17.50
2023-05-22T00:45:57.330Z,15.87
2023-05-22T00:48:24.386Z,16.67
2023-05-22T00:50:51.510Z,15.77
2023-05-22T00:53:24.400Z,16.60
2023-05-22T00:55:52.451Z,15.77
2023-05-22T00:58:19.028Z,16.97
2023-05-22T01:00:46.757Z,16.37
2023-05-22T01:03:14.024Z,16.70
2023-05-22T01:05:43.247Z,17.93
2023-05-22T01:08:09.896Z,16.23
2023-05-22T01:10:38.016Z,17.47
2023-05-22T01:13:04.724Z,16.63
2023-05-22T01:15:39.686Z,16.47
2023-05-22T01:18:11.412Z,15.83
2023-05-22T01:20:43.596Z,17.00
2023-05-22T01:23:22.233Z,16.70
2023-05-22T01:26:11.575Z,15.20
2023-05-22T01:28:53.139Z,19.23
2023-05-22T01:31:21.270Z,16.10
2023-05-22T01:34:07.902Z,15.77
2023-05-22T01:36:36.159Z,17.37
2023-05-22T01:39:06.450Z,15.53
2023-05-22T01:41:33.675Z,16.50
2023-05-22T01:44:01.335Z,15.07
2023-05-22T01:46:29.103Z,15.80
2023-05-22T01:48:56.365Z,14.20
2023-05-22T01:51:25.998Z,14.40
2023-05-22T01:54:03.494Z,14.10
2023-05-22T01:56:34.971Z,14.73
2023-05-22T01:59:09.643Z,13.60
2023-05-22T02:01:37.894Z,13.87
2023-05-22T02:04:05.003Z,14.50
2023-05-22T02:06:33.503Z,14.17
2023-05-22T02:09:01.276Z,13.27
2023-05-22T02:11:29.239Z,12.87
2023-05-22T02:13:56.637Z,13.47
2023-05-22T02:16:23.594Z,13.37
2023-05-22T02:18:51.521Z,13.03
2023-05-22T02:21:18.119Z,14.33
2023-05-22T02:23:47.161Z,13.33
2023-05-22T02:26:13.733Z,14.17
2023-05-22T02:28:43.050Z,14.30
2023-05-22T02:31:09.596Z,15.73
2023-05-22T02:33:36.305Z,14.23
2023-05-22T02:36:03.004Z,14.70
2023-05-22T02:38:29.589Z,15.00
2023-05-22T02:40:56.222Z,14.87
2023-05-22T02:43:22.766Z,15.07
2023-05-22T02:45:49.339Z,16.20
2023-05-22T02:48:17.010Z,16.43
2023-05-22T02:50:44.409Z,16.67
2023-05-22T02:53:11.177Z,17.53
2023-05-22T02:55:38.022Z,19.33
2023-05-22T02:58:04.572Z,21.33
2023-05-22T03:00:31.432Z,19.57
2023-05-22T03:02:58.081Z,20.30
2023-05-22T03:05:24.642Z,19.20
2023-05-22T03:07:51.199Z,19.43
2023-05-22T03:10:17.916Z,23.77
2023-05-22T03:12:47.284Z,21.23
2023-05-22T03:15:13.948Z,19.30
2023-05-22T03:17:40.561Z,18.63
2023-05-22T03:20:09.612Z,16.73
2023-05-22T03:22:36.253Z,20.67
2023-05-22T03:25:02.811Z,18.03
2023-05-22T03:27:29.351Z,15.47
2023-05-22T03:29:55.915Z,16.90
2023-05-22T03:32:24.949Z,16.73
2023-05-22T03:34:51.780Z,16.00
2023-05-22T03:37:18.417Z,16.20
2023-05-22T03:39:45.648Z,16.17
2023-05-22T03:42:13.707Z,16.10
2023-05-22T03:44:40.302Z,16.83
2023-05-22T03:47:06.935Z,17.20
2023-05-22T03:49:33.633Z,16.00
2023-05-22T03:52:00.428Z,16.00
2023-05-22T03:54:27.096Z,16.30
2023-05-22T03:56:53.654Z,16.60
2023-05-22T03:59:20.166Z,16.20
2023-05-22T04:01:47.216Z,15.23
2023-05-22T04:04:13.845Z,15.93
2023-05-22T04:06:43.617Z,16.87
2023-05-22T04:09:11.784Z,22.70
2023-05-22T04:11:42.486Z,17.00
2023-05-22T04:14:09.626Z,18.10
2023-05-22T04:16:38.763Z,18.43
2023-05-22T04:19:05.933Z,18.30
2023-05-22T04:21:35.900Z,20.50
2023-05-22T04:24:07.293Z,18.67
2023-05-22T04:26:34.441Z,18.70
2023-05-22T04:29:01.468Z,17.93
2023-05-22T04:31:28.303Z,17.80
2023-05-22T04:33:56.105Z,18.13
2023-05-22T04:36:22.726Z,18.50
2023-05-22T04:38:50.419Z,17.43
2023-05-22T04:41:19.652Z,19.33
2023-05-22T04:43:49.086Z,20.50
2023-05-22T04:46:16.418Z,19.33
2023-05-22T04:48:43.051Z,19.23
2023-05-22T04:51:09.995Z,22.57
2023-05-22T04:53:38.753Z,19.57
2023-05-22T04:56:05.992Z,19.80
2023-05-22T04:58:32.695Z,19.57
2023-05-22T05:00:59.396Z,19.20
2023-05-22T05:03:27.470Z,19.77
2023-05-22T05:05:54.307Z,20.53
2023-05-22T05:08:21.018Z,23.27
2023-05-22T05:10:47.598Z,21.30
2023-05-22T05:13:14.190Z,21.57
2023-05-22T05:15:40.810Z,25.80
2023-05-22T05:18:07.490Z,20.67
2023-05-22T05:20:34.100Z,23.47
2023-05-22T05:23:01.013Z,22.00
2023-05-22T05:25:27.680Z,21.80
2023-05-22T05:27:54.369Z,23.00
2023-05-22T05:30:20.987Z,25.47
2023-05-22T05:32:47.619Z,23.03
2023-05-22T05:35:14.304Z,23.30
2023-05-22T05:37:41.982Z,25.70
2023-05-22T05:40:09.032Z,25.47
2023-05-22T05:42:36.125Z,25.77
2023-05-22T05:45:02.796Z,24.17
2023-05-22T05:47:30.709Z,25.47
2023-05-22T05:50:00.003Z,27.77
2023-05-22T05:52:27.371Z,26.40
2023-05-22T05:54:53.986Z,25.20
2023-05-22T05:57:20.956Z,27.07
2023-05-22T05:59:47.826Z,26.50
2023-05-22T06:02:14.574Z,29.63
2023-05-22T06:04:42.271Z,26.67
2023-05-22T06:07:08.820Z,26.73
2023-05-22T06:09:36.474Z,26.07
2023-05-22T06:12:03.023Z,29.43
2023-05-22T06:14:29.798Z,28.67
2023-05-22T06:16:56.563Z,25.90
2023-05-22T06:19:23.273Z,25.77
2023-05-22T06:21:52.040Z,27.47
2023-05-22T06:24:18.825Z,27.83
2023-05-22T06:26:45.419Z,28.10
2023-05-22T06:29:12.017Z,30.50
2023-05-22T06:31:39.559Z,32.93
2023-05-22T06:34:06.293Z,28.87
2023-05-22T06:36:35.320Z,31.67
2023-05-22T06:39:02.454Z,48.70
2023-05-22T06:41:29.049Z,42.53
2023-05-22T06:43:55.616Z,44.50
2023-05-22T06:46:23.776Z,38.27
2023-05-22T06:48:52.382Z,36.03
2023-05-22T06:51:18.932Z,30.50
2023-05-22T06:53:45.667Z,26.70
2023-05-22T06:56:12.335Z,27.83
2023-05-22T06:58:39.418Z,25.67
2023-05-22T07:01:06.186Z,27.87
2023-05-22T07:03:32.798Z,28.57
2023-05-22T07:05:59.893Z,27.60
2023-05-22T07:08:28.428Z,31.80
2023-05-22T07:10:57.042Z,30.90
2023-05-22T07:13:25.008Z,45.40
2023-05-22T07:15:51.541Z,30.83
2023-05-22T07:18:18.119Z,33.57
2023-05-22T07:20:45.716Z,32.30
2023-05-22T07:23:12.274Z,31.23
2023-05-22T07:25:38.872Z,31.97
2023-05-22T07:28:09.226Z,33.00
2023-05-22T07:30:37.415Z,34.23
2023-05-22T07:33:05.239Z,34.53
2023-05-22T07:35:32.015Z,37.17
2023-05-22T07:37:58.591Z,34.67
2023-05-22T07:40:26.392Z,38.13
2023-05-22T07:42:53.521Z,40.23
2023-05-22T07:45:23.183Z,37.87
2023-05-22T07:47:49.802Z,38.73
2023-05-22T07:50:16.492Z,35.17
2023-05-22T07:52:43.035Z,38.17
2023-05-22T07:55:10.227Z,37.40
2023-05-22T07:57:37.078Z,33.57
2023-05-22T08:00:13.915Z,36.40
2023-05-22T08:02:41.405Z,36.63
2023-05-22T08:05:08.517Z,37.80
2023-05-22T08:07:35.225Z,39.23
2023-05-22T08:10:13.160Z,37.63
2023-05-22T08:12:39.698Z,42.67
2023-05-22T08:15:06.685Z,43.17
2023-05-22T08:17:33.356Z,42.00
2023-05-22T08:20:00.248Z,42.80
2023-05-22T08:22:29.528Z,40.10
2023-05-22T08:24:56.073Z,50.60
2023-05-22T08:27:22.792Z,47.00
2023-05-22T08:29:49.379Z,42.77
2023-05-22T08:32:16.042Z,47.13
2023-05-22T08:34:43.179Z,44.77
2023-05-22T08:37:09.838Z,53.63
2023-05-22T08:39:36.487Z,49.83
2023-05-22T08:42:05.375Z,45.30
2023-05-22T08:44:34.514Z,47.93
2023-05-22T08:47:01.396Z,41.87
2023-05-22T08:49:28.210Z,46.33
2023-05-22T08:51:56.550Z,40.83
2023-05-22T08:54:26.299Z,45.83
2023-05-22T08:56:57.149Z,62.63
2023-05-22T08:59:24.090Z,43.63
2023-05-22T09:01:52.607Z,65.50
2023-05-22T09:04:23.282Z,67.20
2023-05-22T09:06:50.729Z,42.83
2023-05-22T09:09:18.057Z,36.93
2023-05-22T09:11:44.653Z,36.77
2023-05-22T09:14:11.834Z,37.27
2023-05-22T09:16:48.666Z,38.53
2023-05-22T09:19:16.056Z,35.37
2023-05-22T09:21:43.988Z,37.67
2023-05-22T09:24:11.096Z,38.00
2023-05-22T09:26:40.844Z,37.83
2023-05-22T09:29:08.218Z,36.17
2023-05-22T09:31:42.262Z,36.77
2023-05-22T09:34:10.371Z,34.70
2023-05-22T09:36:37.031Z,37.93
2023-05-22T09:39:04.533Z,39.27
2023-05-22T09:41:33.877Z,34.53
2023-05-22T09:44:01.949Z,33.13
2023-05-22T09:46:29.334Z,35.93
2023-05-22T09:48:58.213Z,34.63
2023-05-22T09:51:26.729Z,37.63
2023-05-22T09:53:55.160Z,37.27
2023-05-22T09:56:37.963Z,40.40
2023-05-22T09:59:08.886Z,37.60
2023-05-22T10:01:38.970Z,37.70
2023-05-22T10:04:06.751Z,37.23
2023-05-22T10:06:34.804Z,39.70
2023-05-22T10:09:05.418Z,41.73
2023-05-22T10:11:33.431Z,37.50
2023-05-22T10:14:01.311Z,56.10
2023-05-22T10:16:28.447Z,42.40
2023-05-22T10:18:56.464Z,38.67
2023-05-22T10:21:23.041Z,37.33
2023-05-22T10:23:50.095Z,42.87
2023-05-22T10:26:16.963Z,41.37
2023-05-22T10:28:47.039Z,40.10
2023-05-22T10:31:32.390Z,39.80
2023-05-22T10:34:01.121Z,39.40
2023-05-22T10:36:37.126Z,39.97
2023-05-22T10:39:13.328Z,33.83
2023-05-22T10:41:40.234Z,37.00
2023-05-22T10:44:06.862Z,37.13
2023-05-22T10:46:36.454Z,36.17
2023-05-22T10:49:03.151Z,37.63
2023-05-22T10:51:29.772Z,37.30
2023-05-22T10:54:01.114Z,34.27
2023-05-22T10:56:35.497Z,38.63
2023-05-22T10:59:04.986Z,34.57
2023-05-22T11:01:35.299Z,34.70
2023-05-22T11:04:05.328Z,29.70
2023-05-22T11:06:33.030Z,34.47
2023-05-22T11:08:59.884Z,34.43
2023-05-22T11:11:27.168Z,32.00
2023-05-22T11:14:01.280Z,37.70
2023-05-22T11:16:31.510Z,36.63
2023-05-22T11:19:22.070Z,34.60
2023-05-22T11:21:50.203Z,36.57
2023-05-22T11:24:18.362Z,33.77
2023-05-22T11:27:00.373Z,31.60
2023-05-22T11:29:27.026Z,37.20
2023-05-22T11:31:53.680Z,34.27
2023-05-22T11:34:20.811Z,37.93
2023-05-22T11:36:48.124Z,38.97
2023-05-22T11:39:15.071Z,39.53
2023-05-22T11:41:41.619Z,39.33
2023-05-22T11:44:08.492Z,35.97
2023-05-22T11:46:35.317Z,37.40
2023-05-22T11:49:02.510Z,44.63
2023-05-22T11:51:29.460Z,48.97
2023-05-22T11:53:57.331Z,42.10
2023-05-22T11:56:23.906Z,42.53
2023-05-22T11:58:50.719Z,40.43
2023-05-22T12:01:17.374Z,39.83
2023-05-22T12:03:43.979Z,38.00
2023-05-22T12:06:10.842Z,38.53
2023-05-22T12:08:37.654Z,41.20
2023-05-22T12:11:05.067Z,41.90
2023-05-22T12:13:32.228Z,42.77
2023-05-22T12:16:02.479Z,40.97
2023-05-22T12:18:38.027Z,38.30
2023-05-22T12:21:07.595Z,38.13
2023-05-22T12:23:34.318Z,47.23
2023-05-22T12:26:02.285Z,47.43
2023-05-22T12:28:31.379Z,41.70
2023-05-22T12:30:57.933Z,41.27
2023-05-22T12:33:31.147Z,40.60
2023-05-22T12:35:58.854Z,38.63
2023-05-22T12:38:26.714Z,37.23
2023-05-22T12:40:53.755Z,37.90
2023-05-22T12:43:21.342Z,36.27
2023-05-22T12:45:47.875Z,37.37
2023-05-22T12:48:14.538Z,36.27
2023-05-22T12:50:41.453Z,39.40
2023-05-22T12:53:08.260Z,35.27
2023-05-22T12:55:36.116Z,37.53
2023-05-22T12:58:02.720Z,35.10
2023-05-22T13:00:29.646Z,35.07
2023-05-22T13:02:56.232Z,36.17
2023-05-22T13:05:23.014Z,33.93
2023-05-22T13:07:49.707Z,37.43
2023-05-22T13:10:16.532Z,32.93
2023-05-22T13:12:46.278Z,33.63
2023-05-22T13:15:15.427Z,32.57
2023-05-22T13:17:42.128Z,33.33
2023-05-22T13:20:08.984Z,35.43
2023-05-22T13:22:35.608Z,30.50
2023-05-22T13:25:02.174Z,29.07
2023-05-22T13:27:29.171Z,32.60
2023-05-22T13:29:56.726Z,29.47
2023-05-22T13:32:23.733Z,30.70
2023-05-22T13:34:50.321Z,32.53
2023-05-22T13:37:17.007Z,32.90
2023-05-22T13:39:43.549Z,29.70
2023-05-22T13:42:10.146Z,31.47
2023-05-22T13:44:36.740Z,31.97
2023-05-22T13:47:03.772Z,32.20
2023-05-22T13:49:30.426Z,27.73
2023-05-22T13:51:57.288Z,25.90
2023-05-22T13:54:23.932Z,28.47
2023-05-22T13:56:50.507Z,28.80
2023-05-22T13:59:17.010Z,26.10
2023-05-22T14:01:43.575Z,27.70
2023-05-22T14:04:11.244Z,27.10
2023-05-22T14:06:38.276Z,29.27
2023-05-22T14:09:07.394Z,27.60
2023-05-22T14:11:34.140Z,30.20
2023-05-22T14:14:00.795Z,30.57
2023-05-22T14:16:27.327Z,31.03
2023-05-22T14:18:54.038Z,29.63
2023-05-22T14:21:20.644Z,27.43
2023-05-22T14:23:48.934Z,32.07
2023-05-22T14:26:15.664Z,32.10
2023-05-22T14:28:42.656Z,36.93
2023-05-22T14:31:09.235Z,36.77
2023-05-22T14:33:36.332Z,33.70
2023-05-22T14:36:02.918Z,37.17
2023-05-22T14:38:36.356Z,34.73
2023-05-22T14:41:02.973Z,37.57
2023-05-22T14:43:29.547Z,38.37
2023-05-22T14:46:00.998Z,36.13
2023-05-22T14:48:29.498Z,41.33
2023-05-22T14:50:56.366Z,53.27
2023-05-22T14:53:23.396Z,43.90
2023-05-22T14:55:50.033Z,42.57
2023-05-22T14:58:16.619Z,51.07
2023-05-22T15:00:43.175Z,48.17
2023-05-22T15:03:09.733Z,51.73
2023-05-22T15:05:36.536Z,49.77
2023-05-22T15:08:03.070Z,49.37
2023-05-22T15:10:29.705Z,49.73
2023-05-22T15:12:56.656Z,44.83
2023-05-22T15:15:23.226Z,50.57
2023-05-22T15:17:50.181Z,55.27
2023-05-22T15:20:16.996Z,51.87
2023-05-22T15:22:43.601Z,56.23
2023-05-22T15:25:12.010Z,50.37
2023-05-22T15:27:39.289Z,51.87
2023-05-22T15:30:06.845Z,49.53
2023-05-22T15:32:33.561Z,52.80
2023-05-22T15:35:03.312Z,50.83
2023-05-22T15:37:37.156Z,51.27
2023-05-22T15:40:09.811Z,42.83
2023-05-22T15:42:36.423Z,45.17
2023-05-22T15:45:03.242Z,41.50
2023-05-22T15:47:29.872Z,40.63
2023-05-22T15:49:56.483Z,39.73
2023-05-22T15:52:24.669Z,37.63
2023-05-22T15:54:51.530Z,35.00
2023-05-22T15:57:18.216Z,37.93
2023-05-22T15:59:52.262Z,35.80
2023-05-22T16:02:19.097Z,32.07
2023-05-22T16:04:45.853Z,30.80
2023-05-22T16:07:12.549Z,30.93
2023-05-22T16:09:39.129Z,30.47
2023-05-22T16:12:05.918Z,27.53
2023-05-22T16:14:32.497Z,29.70
2023-05-22T16:17:04.891Z,29.43
2023-05-22T16:19:33.570Z,27.63
2023-05-22T16:22:03.801Z,32.40
2023-05-22T16:24:30.583Z,27.93
2023-05-22T16:26:58.320Z,29.63
2023-05-22T16:29:25.792Z,29.77
2023-05-22T16:31:52.448Z,30.40
2023-05-22T16:34:19.281Z,23.53
2023-05-22T16:36:46.547Z,16.53
2023-05-22T16:39:13.367Z,18.37
2023-05-22T16:41:40.151Z,15.83
2023-05-22T16:44:06.796Z,15.17
2023-05-22T16:46:33.571Z,14.30
2023-05-22T16:49:00.263Z,13.33
2023-05-22T16:51:26.973Z,13.33
2023-05-22T16:53:53.519Z,15.53
2023-05-22T16:56:26.244Z,12.20
2023-05-22T16:58:52.766Z,16.23
2023-05-22T17:01:21.726Z,12.10
2023-05-22T17:03:48.578Z,13.77
2023-05-22T17:06:15.234Z,14.67
2023-05-22T17:08:41.785Z,11.80
2023-05-22T17:11:08.397Z,11.37
2023-05-22T17:13:35.006Z,12.30
2023-05-22T17:16:01.560Z,11.87
2023-05-22T17:18:28.202Z,13.30
2023-05-22T17:20:55.885Z,12.70
2023-05-22T17:23:30.517Z,13.10
2023-05-22T17:25:57.460Z,13.40
2023-05-22T17:28:24.000Z,13.20
2023-05-22T17:30:50.852Z,15.07
2023-05-22T17:33:17.474Z,13.70
2023-05-22T17:35:44.143Z,15.27
2023-05-22T17:38:10.738Z,13.70
2023-05-22T17:40:44.990Z,15.10
2023-05-22T17:43:13.004Z,14.97
2023-05-22T17:45:39.789Z,14.30
2023-05-22T17:48:07.448Z,14.07
2023-05-22T17:50:34.478Z,14.87
2023-05-22T17:53:01.032Z,15.57
2023-05-22T17:55:28.001Z,20.83
2023-05-22T17:57:54.743Z,19.43
2023-05-22T18:00:21.308Z,16.20
2023-05-22T18:02:47.976Z,15.37
2023-05-22T18:05:14.570Z,14.67
2023-05-22T18:07:41.156Z,15.77
2023-05-22T18:10:08.026Z,16.07
2023-05-22T18:12:36.578Z,16.37
2023-05-22T18:15:04.972Z,15.97
2023-05-22T18:17:33.877Z,16.83
2023-05-22T18:20:00.896Z,15.13
2023-05-22T18:22:27.451Z,16.10
2023-05-22T18:24:54.022Z,16.20
2023-05-22T18:27:20.812Z,15.30
2023-05-22T18:29:47.352Z,14.70
2023-05-22T18:32:14.047Z,14.07
2023-05-22T18:34:41.179Z,17.93
2023-05-22T18:37:07.788Z,15.20
2023-05-22T18:39:34.335Z,16.23
2023-05-22T18:42:01.197Z,16.90
2023-05-22T18:44:27.804Z,20.90
2023-05-22T18:46:54.444Z,17.37
2023-05-22T18:49:21.064Z,18.77
2023-05-22T18:51:47.638Z,17.73
2023-05-22T18:54:14.168Z,16.10
2023-05-22T18:56:40.860Z,14.87
2023-05-22T18:59:07.391Z,15.63
2023-05-22T19:01:33.990Z,14.90
2023-05-22T19:04:00.713Z,13.03
2023-05-22T19:06:30.832Z,14.53
2023-05-22T19:08:57.433Z,12.07
2023-05-22T19:11:23.972Z,10.40
2023-05-22T19:13:50.678Z,11.50
2023-05-22T19:16:17.252Z,9.87
2023-05-22T19:18:43.818Z,7.73
2023-05-22T19:21:12.919Z,6.23
2023-05-22T19:23:39.680Z,7.70
2023-05-22T19:26:08.516Z,12.00
2023-05-22T19:28:35.075Z,7.77
2023-05-22T19:31:03.310Z,6.70
2023-05-22T19:33:31.239Z,7.23
2023-05-22T19:35:58.827Z,6.67
2023-05-22T19:38:25.836Z,5.60
2023-05-22T19:40:52.345Z,10.00
2023-05-22T19:43:19.047Z,6.17
2023-05-22T19:45:45.898Z,9.20
2023-05-22T19:48:13.329Z,7.10
2023-05-22T19:50:40.242Z,7.03
2023-05-22T19:53:07.336Z,5.30
2023-05-22T19:55:33.913Z,9.27
2023-05-22T19:58:00.435Z,5.33
2023-05-22T20:00:28.784Z,6.63
2023-05-22T20:02:56.038Z,5.60
2023-05-22T20:05:28.736Z,7.87
2023-05-22T20:07:55.262Z,5.97
2023-05-22T20:10:21.914Z,6.57
2023-05-22T20:12:48.465Z,5.97
2023-05-22T20:15:15.429Z,7.00
2023-05-22T20:17:43.673Z,7.57
2023-05-22T20:20:10.633Z,6.00
2023-05-22T20:22:37.177Z,7.83
2023-05-22T20:25:05.318Z,5.73
2023-05-22T20:27:32.001Z,8.30
2023-05-22T20:30:00.090Z,8.03
2023-05-22T20:32:27.068Z,6.43
2023-05-22T20:34:55.423Z,8.67
2023-05-22T20:37:22.388Z,6.43
2023-05-22T20:39:50.260Z,6.63
2023-05-22T20:42:17.293Z,5.80
2023-05-22T20:44:44.245Z,6.93
2023-05-22T20:47:11.080Z,6.50
2023-05-22T20:49:40.649Z,7.90
2023-05-22T20:52:07.306Z,8.83
2023-05-22T20:54:34.872Z,9.60
2023-05-22T20:57:02.265Z,8.93
2023-05-22T20:59:29.278Z,8.23
2023-05-22T21:01:57.049Z,8.40
2023-05-22T21:04:23.995Z,7.20
2023-05-22T21:06:50.593Z,7.37
2023-05-22T21:09:17.155Z,7.10
2023-05-22T21:11:43.709Z,6.83
2023-05-22T21:14:10.274Z,8.80
2023-05-22T21:16:39.242Z,7.50
2023-05-22T21:19:07.339Z,8.00
2023-05-22T21:21:34.199Z,7.33
2023-05-22T21:24:00.900Z,8.57
2023-05-22T21:26:27.682Z,9.17
2023-05-22T21:28:54.764Z,8.90
2023-05-22T21:31:21.426Z,6.87
2023-05-22T21:33:48.455Z,8.37
2023-05-22T21:36:15.780Z,7.13
2023-05-22T21:38:42.636Z,9.57
2023-05-22T21:41:09.222Z,6.93
2023-05-22T21:43:36.036Z,7.00
2023-05-22T21:46:02.967Z,7.37
2023-05-22T21:48:29.537Z,6.67
2023-05-22T21:50:56.254Z,7.37
2023-05-22T21:53:23.004Z,8.07
2023-05-22T21:55:49.802Z,11.73
2023-05-22T21:58:16.484Z,9.50
2023-05-22T22:00:43.020Z,7.43
2023-05-22T22:03:09.665Z,11.80
2023-05-22T22:05:36.389Z,8.87
2023-05-22T22:08:03.031Z,7.60
2023-05-22T22:10:29.561Z,7.87
2023-05-22T22:12:56.106Z,9.07
2023-05-22T22:15:22.770Z,8.03
2023-05-22T22:17:50.299Z,7.87
2023-05-22T22:20:18.665Z,8.30
2023-05-22T22:22:49.058Z,10.43
2023-05-22T22:25:17.877Z,9.47
2023-05-22T22:27:44.791Z,10.63
2023-05-22T22:30:11.880Z,8.50
2023-05-22T22:32:38.444Z,9.20
2023-05-22T22:35:05.812Z,12.43
2023-05-22T22:37:32.725Z,10.67
2023-05-22T22:39:59.290Z,9.40
2023-05-22T22:42:26.797Z,9.03
2023-05-22T22:44:53.312Z,9.60
2023-05-22T22:47:20.132Z,9.83
2023-05-22T22:49:46.700Z,11.23
2023-05-22T22:52:13.271Z,9.10
2023-05-22T22:54:44.526Z,10.10
2023-05-22T22:57:11.268Z,10.17
2023-05-22T22:59:38.939Z,8.40
2023-05-22T23:02:05.714Z,8.57
2023-05-22T23:04:32.342Z,9.20
2023-05-22T23:06:58.942Z,10.77
2023-05-22T23:09:25.664Z,8.80
2023-05-22T23:11:52.286Z,9.20
2023-05-22T23:14:20.480Z,9.07
2023-05-22T23:16:46.983Z,9.20
2023-05-22T23:19:14.238Z,8.70
2023-05-22T23:21:40.810Z,9.00
2023-05-22T23:24:07.463Z,11.93
2023-05-22T23:26:34.062Z,10.00
2023-05-22T23:29:01.132Z,9.07
2023-05-22T23:31:30.759Z,11.00
2023-05-22T23:33:57.602Z,8.90
2023-05-22T23:36:24.684Z,10.80
2023-05-22T23:38:51.251Z,9.03
2023-05-22T23:41:17.883Z,8.20
2023-05-22T23:43:44.784Z,8.20
2023-05-22T23:46:13.394Z,8.07
2023-05-22T23:48:40.644Z,9.13
2023-05-22T23:51:09.123Z,8.50
2023-05-22T23:53:36.337Z,8.83
2023-05-22T23:56:03.112Z,7.50
2023-05-22T23:58:30.365Z,6.53
